sensor_id;sensor_type;location;lat;lon;timestamp;temperature;humidity
25024;DHT22;13033;50.936;5.334;2023-03-01T00:01:48;1.50;99.90
25024;DHT22;13033;50.936;5.334;2023-03-01T00:04:14;1.60;99.90
25024;DHT22;13033;50.936;5.334;2023-03-01T00:06:41;1.50;99.90
25024;DHT22;13033;50.936;5.334;2023-03-01T00:09:08;1.50;99.90
25024;DHT22;13033;50.936;5.334;2023-03-01T00:11:34;1.40;99.90
25024;DHT22;13033;50.936;5.334;2023-03-01T00:14:00;1.40;99.90
25024;DHT22;13033;50.936;5.334;2023-03-01T00:16:29;1.30;99.90
25024;DHT22;13033;50.936;5.334;2023-03-01T00:18:56;1.30;99.90
25024;DHT22;13033;50.936;5.334;2023-03-01T00:21:22;1.20;99.90
25024;DHT22;13033;50.936;5.334;2023-03-01T00:23:49;1.10;99.90
25024;DHT22;13033;50.936;5.334;2023-03-01T00:26:16;1.10;99.90
25024;DHT22;13033;50.936;5.334;2023-03-01T00:28:43;1.20;99.90
25024;DHT22;13033;50.936;5.334;2023-03-01T00:31:11;1.30;99.90
25024;DHT22;13033;50.936;5.334;2023-03-01T00:33:37;1.20;99.90
25024;DHT22;13033;50.936;5.334;2023-03-01T00:36:03;1.20;99.90
25024;DHT22;13033;50.936;5.334;2023-03-01T00:38:29;1.10;99.90
25024;DHT22;13033;50.936;5.334;2023-03-01T00:40:55;1.10;99.90
25024;DHT22;13033;50.936;5.334;2023-03-01T00:43:21;1.10;99.90
25024;DHT22;13033;50.936;5.334;2023-03-01T00:45:46;1.10;99.90
25024;DHT22;13033;50.936;5.334;2023-03-01T00:48:12;1.10;99.90
25024;DHT22;13033;50.936;5.334;2023-03-01T00:50:38;1.10;99.90
25024;DHT22;13033;50.936;5.334;2023-03-01T00:53:03;1.10;99.90
25024;DHT22;13033;50.936;5.334;2023-03-01T00:55:30;1.10;99.90
25024;DHT22;13033;50.936;5.334;2023-03-01T00:57:56;1.10;99.90
25024;DHT22;13033;50.936;5.334;2023-03-01T01:00:22;1.10;99.90
25024;DHT22;13033;50.936;5.334;2023-03-01T01:02:47;1.00;99.90
25024;DHT22;13033;50.936;5.334;2023-03-01T01:05:14;1.00;99.90
25024;DHT22;13033;50.936;5.334;2023-03-01T01:07:39;1.00;99.90
25024;DHT22;13033;50.936;5.334;2023-03-01T01:10:05;1.00;99.90
25024;DHT22;13033;50.936;5.334;2023-03-01T01:12:32;1.00;99.90
25024;DHT22;13033;50.936;5.334;2023-03-01T01:14:58;0.90;99.90
25024;DHT22;13033;50.936;5.334;2023-03-01T01:17:23;0.80;99.90
25024;DHT22;13033;50.936;5.334;2023-03-01T01:19:49;0.80;99.90
25024;DHT22;13033;50.936;5.334;2023-03-01T01:22:15;0.70;99.90
25024;DHT22;13033;50.936;5.334;2023-03-01T01:24:41;0.80;99.90
25024;DHT22;13033;50.936;5.334;2023-03-01T01:27:06;0.70;99.90
25024;DHT22;13033;50.936;5.334;2023-03-01T01:29:32;0.70;99.90
25024;DHT22;13033;50.936;5.334;2023-03-01T01:31:58;0.70;99.90
25024;DHT22;13033;50.936;5.334;2023-03-01T01:34:24;0.80;99.90
25024;DHT22;13033;50.936;5.334;2023-03-01T01:36:53;0.80;99.90
25024;DHT22;13033;50.936;5.334;2023-03-01T01:39:20;0.70;99.90
25024;DHT22;13033;50.936;5.334;2023-03-01T01:41:46;0.70;99.90
25024;DHT22;13033;50.936;5.334;2023-03-01T01:44:19;0.70;99.90
25024;DHT22;13033;50.936;5.334;2023-03-01T01:49:45;0.60;99.90
25024;DHT22;13033;50.936;5.334;2023-03-01T01:52:34;0.60;99.90
25024;DHT22;13033;50.936;5.334;2023-03-01T01:55:11;0.60;99.90
25024;DHT22;13033;50.936;5.334;2023-03-01T01:57:45;0.60;99.90
25024;DHT22;13033;50.936;5.334;2023-03-01T02:00:21;0.50;99.90
25024;DHT22;13033;50.936;5.334;2023-03-01T02:02:50;0.50;99.90
25024;DHT22;13033;50.936;5.334;2023-03-01T02:05:50;0.50;99.90
25024;DHT22;13033;50.936;5.334;2023-03-01T02:08:19;0.50;99.90
25024;DHT22;13033;50.936;5.334;2023-03-01T02:10:45;0.60;99.90
25024;DHT22;13033;50.936;5.334;2023-03-01T02:13:12;0.70;99.90
25024;DHT22;13033;50.936;5.334;2023-03-01T02:15:39;0.70;99.90
25024;DHT22;13033;50.936;5.334;2023-03-01T02:18:06;0.60;99.90
25024;DHT22;13033;50.936;5.334;2023-03-01T02:20:51;0.60;99.90
25024;DHT22;13033;50.936;5.334;2023-03-01T02:23:20;0.40;99.90
25024;DHT22;13033;50.936;5.334;2023-03-01T02:26:06;0.40;99.90
25024;DHT22;13033;50.936;5.334;2023-03-01T02:28:35;0.40;99.90
25024;DHT22;13033;50.936;5.334;2023-03-01T02:31:02;0.50;99.90
25024;DHT22;13033;50.936;5.334;2023-03-01T02:33:47;0.40;99.90
25024;DHT22;13033;50.936;5.334;2023-03-01T02:36:19;0.40;99.90
25024;DHT22;13033;50.936;5.334;2023-03-01T02:38:47;0.30;99.90
25024;DHT22;13033;50.936;5.334;2023-03-01T02:41:15;0.30;99.90
25024;DHT22;13033;50.936;5.334;2023-03-01T02:43:41;0.20;99.90
25024;DHT22;13033;50.936;5.334;2023-03-01T02:46:15;0.10;99.90
25024;DHT22;13033;50.936;5.334;2023-03-01T02:48:52;0.30;99.90
25024;DHT22;13033;50.936;5.334;2023-03-01T02:54:15;0.10;99.90
25024;DHT22;13033;50.936;5.334;2023-03-01T02:56:44;0.30;99.90
25024;DHT22;13033;50.936;5.334;2023-03-01T02:59:13;0.30;99.90
25024;DHT22;13033;50.936;5.334;2023-03-01T03:01:39;0.30;99.90
25024;DHT22;13033;50.936;5.334;2023-03-01T03:04:15;0.30;99.90
25024;DHT22;13033;50.936;5.334;2023-03-01T03:06:47;0.20;99.90
25024;DHT22;13033;50.936;5.334;2023-03-01T03:09:14;0.10;99.90
25024;DHT22;13033;50.936;5.334;2023-03-01T03:11:40;0.20;99.90
25024;DHT22;13033;50.936;5.334;2023-03-01T03:14:12;0.20;99.90
25024;DHT22;13033;50.936;5.334;2023-03-01T03:16:44;0.10;99.90
25024;DHT22;13033;50.936;5.334;2023-03-01T03:19:10;0.10;99.90
25024;DHT22;13033;50.936;5.334;2023-03-01T03:21:36;0.10;99.90
25024;DHT22;13033;50.936;5.334;2023-03-01T03:24:02;0.20;99.90
25024;DHT22;13033;50.936;5.334;2023-03-01T03:26:29;0.20;99.90
25024;DHT22;13033;50.936;5.334;2023-03-01T03:28:55;0.00;99.90
25024;DHT22;13033;50.936;5.334;2023-03-01T03:31:21;0.00;99.90
25024;DHT22;13033;50.936;5.334;2023-03-01T03:33:46;0.00;99.90
25024;DHT22;13033;50.936;5.334;2023-03-01T03:36:23;-0.10;99.90
25024;DHT22;13033;50.936;5.334;2023-03-01T03:38:49;0.10;99.90
25024;DHT22;13033;50.936;5.334;2023-03-01T03:41:15;0.00;99.90
25024;DHT22;13033;50.936;5.334;2023-03-01T03:43:43;0.00;99.90
25024;DHT22;13033;50.936;5.334;2023-03-01T03:46:10;0.00;99.90
25024;DHT22;13033;50.936;5.334;2023-03-01T03:48:38;0.10;99.90
25024;DHT22;13033;50.936;5.334;2023-03-01T03:51:04;0.00;99.90
25024;DHT22;13033;50.936;5.334;2023-03-01T03:53:33;0.00;99.90
25024;DHT22;13033;50.936;5.334;2023-03-01T03:55:59;0.00;99.90
25024;DHT22;13033;50.936;5.334;2023-03-01T03:58:25;-0.10;99.90
25024;DHT22;13033;50.936;5.334;2023-03-01T04:00:53;-0.10;99.90
25024;DHT22;13033;50.936;5.334;2023-03-01T04:03:22;-0.10;99.90
25024;DHT22;13033;50.936;5.334;2023-03-01T04:05:48;0.00;99.90
25024;DHT22;13033;50.936;5.334;2023-03-01T04:08:16;-0.10;99.90
25024;DHT22;13033;50.936;5.334;2023-03-01T04:10:44;-0.10;99.90
25024;DHT22;13033;50.936;5.334;2023-03-01T04:13:12;-0.10;99.90
25024;DHT22;13033;50.936;5.334;2023-03-01T04:15:39;0.00;99.90
25024;DHT22;13033;50.936;5.334;2023-03-01T04:18:06;-0.10;99.90
25024;DHT22;13033;50.936;5.334;2023-03-01T04:20:33;-0.20;99.90
25024;DHT22;13033;50.936;5.334;2023-03-01T04:23:15;-0.20;99.90
25024;DHT22;13033;50.936;5.334;2023-03-01T04:25:52;-0.30;99.90
25024;DHT22;13033;50.936;5.334;2023-03-01T04:28:33;-0.40;99.90
25024;DHT22;13033;50.936;5.334;2023-03-01T04:31:03;-0.30;99.90
25024;DHT22;13033;50.936;5.334;2023-03-01T04:33:50;-0.40;99.90
25024;DHT22;13033;50.936;5.334;2023-03-01T04:36:17;-0.50;99.90
25024;DHT22;13033;50.936;5.334;2023-03-01T04:38:44;-0.50;99.90
25024;DHT22;13033;50.936;5.334;2023-03-01T04:41:14;-0.50;99.90
25024;DHT22;13033;50.936;5.334;2023-03-01T04:43:40;-0.50;99.90
25024;DHT22;13033;50.936;5.334;2023-03-01T04:46:08;-0.60;99.90
25024;DHT22;13033;50.936;5.334;2023-03-01T04:48:38;-0.50;99.90
25024;DHT22;13033;50.936;5.334;2023-03-01T04:51:05;-0.50;99.90
25024;DHT22;13033;50.936;5.334;2023-03-01T04:53:32;-0.50;99.90
25024;DHT22;13033;50.936;5.334;2023-03-01T04:55:58;-0.40;99.90
25024;DHT22;13033;50.936;5.334;2023-03-01T04:58:26;-0.40;99.90
25024;DHT22;13033;50.936;5.334;2023-03-01T05:00:52;-0.50;99.90
25024;DHT22;13033;50.936;5.334;2023-03-01T05:03:18;-0.50;99.90
25024;DHT22;13033;50.936;5.334;2023-03-01T05:05:47;-0.60;99.90
25024;DHT22;13033;50.936;5.334;2023-03-01T05:08:13;-0.70;99.90
25024;DHT22;13033;50.936;5.334;2023-03-01T05:10:52;-0.60;99.90
25024;DHT22;13033;50.936;5.334;2023-03-01T05:13:19;-0.60;99.90
25024;DHT22;13033;50.936;5.334;2023-03-01T05:15:54;-0.60;99.90
25024;DHT22;13033;50.936;5.334;2023-03-01T05:18:21;-0.70;99.90
25024;DHT22;13033;50.936;5.334;2023-03-01T05:20:46;-0.60;99.90
25024;DHT22;13033;50.936;5.334;2023-03-01T05:23:12;-0.60;99.90
25024;DHT22;13033;50.936;5.334;2023-03-01T05:25:38;-0.60;99.90
25024;DHT22;13033;50.936;5.334;2023-03-01T05:28:07;-0.70;99.90
25024;DHT22;13033;50.936;5.334;2023-03-01T05:30:35;-0.80;99.90
25024;DHT22;13033;50.936;5.334;2023-03-01T05:33:01;-0.90;99.90
25024;DHT22;13033;50.936;5.334;2023-03-01T05:35:27;-0.80;99.90
25024;DHT22;13033;50.936;5.334;2023-03-01T05:37:54;-0.70;99.90
25024;DHT22;13033;50.936;5.334;2023-03-01T05:40:22;-0.80;99.90
25024;DHT22;13033;50.936;5.334;2023-03-01T05:42:54;-0.80;99.90
25024;DHT22;13033;50.936;5.334;2023-03-01T05:45:20;-0.80;99.90
25024;DHT22;13033;50.936;5.334;2023-03-01T05:47:48;-0.80;99.90
25024;DHT22;13033;50.936;5.334;2023-03-01T05:50:19;-0.90;99.90
25024;DHT22;13033;50.936;5.334;2023-03-01T05:52:51;-1.00;99.90
25024;DHT22;13033;50.936;5.334;2023-03-01T05:55:17;-0.90;99.90
25024;DHT22;13033;50.936;5.334;2023-03-01T05:57:43;-0.90;99.90
25024;DHT22;13033;50.936;5.334;2023-03-01T06:00:10;-0.90;99.90
25024;DHT22;13033;50.936;5.334;2023-03-01T06:02:36;-1.00;99.90
25024;DHT22;13033;50.936;5.334;2023-03-01T06:05:04;-0.90;99.90
25024;DHT22;13033;50.936;5.334;2023-03-01T06:07:30;-1.00;99.90
25024;DHT22;13033;50.936;5.334;2023-03-01T06:09:55;-0.90;99.90
25024;DHT22;13033;50.936;5.334;2023-03-01T06:12:21;-1.00;99.90
25024;DHT22;13033;50.936;5.334;2023-03-01T06:14:47;-0.90;99.90
25024;DHT22;13033;50.936;5.334;2023-03-01T06:17:13;-0.90;99.90
25024;DHT22;13033;50.936;5.334;2023-03-01T06:19:39;-1.00;99.90
25024;DHT22;13033;50.936;5.334;2023-03-01T06:22:05;-1.00;99.90
25024;DHT22;13033;50.936;5.334;2023-03-01T06:24:30;-0.90;99.90
25024;DHT22;13033;50.936;5.334;2023-03-01T06:26:56;-1.00;99.90
25024;DHT22;13033;50.936;5.334;2023-03-01T06:29:22;-0.80;99.90
25024;DHT22;13033;50.936;5.334;2023-03-01T06:31:48;-0.90;99.90
25024;DHT22;13033;50.936;5.334;2023-03-01T06:34:14;-0.90;99.90
25024;DHT22;13033;50.936;5.334;2023-03-01T06:36:40;-1.00;99.90
25024;DHT22;13033;50.936;5.334;2023-03-01T06:39:06;-0.90;99.90
25024;DHT22;13033;50.936;5.334;2023-03-01T06:41:32;-0.80;99.90
25024;DHT22;13033;50.936;5.334;2023-03-01T06:43:59;-0.80;99.90
25024;DHT22;13033;50.936;5.334;2023-03-01T06:46:24;-0.80;99.90
25024;DHT22;13033;50.936;5.334;2023-03-01T06:48:50;-0.90;99.90
25024;DHT22;13033;50.936;5.334;2023-03-01T06:51:16;-0.80;99.90
25024;DHT22;13033;50.936;5.334;2023-03-01T06:53:41;-0.80;99.90
25024;DHT22;13033;50.936;5.334;2023-03-01T06:56:07;-0.80;99.90
25024;DHT22;13033;50.936;5.334;2023-03-01T06:58:33;-0.90;99.90
25024;DHT22;13033;50.936;5.334;2023-03-01T07:00:59;-1.00;99.90
25024;DHT22;13033;50.936;5.334;2023-03-01T07:03:26;-1.00;99.90
25024;DHT22;13033;50.936;5.334;2023-03-01T07:05:52;-1.00;99.90
25024;DHT22;13033;50.936;5.334;2023-03-01T07:08:18;-0.90;99.90
25024;DHT22;13033;50.936;5.334;2023-03-01T07:10:44;-0.90;99.90
25024;DHT22;13033;50.936;5.334;2023-03-01T07:13:10;-0.70;99.90
25024;DHT22;13033;50.936;5.334;2023-03-01T07:15:35;-0.70;99.90
25024;DHT22;13033;50.936;5.334;2023-03-01T07:18:01;-0.70;99.90
25024;DHT22;13033;50.936;5.334;2023-03-01T07:20:27;-0.80;99.90
25024;DHT22;13033;50.936;5.334;2023-03-01T07:22:55;-0.70;99.90
25024;DHT22;13033;50.936;5.334;2023-03-01T07:25:24;-0.70;99.90
25024;DHT22;13033;50.936;5.334;2023-03-01T07:27:51;-0.50;99.90
25024;DHT22;13033;50.936;5.334;2023-03-01T07:30:17;-0.40;99.90
25024;DHT22;13033;50.936;5.334;2023-03-01T07:32:43;-0.20;99.90
25024;DHT22;13033;50.936;5.334;2023-03-01T07:35:08;-0.30;99.90
25024;DHT22;13033;50.936;5.334;2023-03-01T07:37:34;-0.30;99.90
25024;DHT22;13033;50.936;5.334;2023-03-01T07:40:00;-0.30;99.90
25024;DHT22;13033;50.936;5.334;2023-03-01T07:42:25;-0.30;99.90
25024;DHT22;13033;50.936;5.334;2023-03-01T07:44:51;-0.10;99.90
25024;DHT22;13033;50.936;5.334;2023-03-01T07:47:17;-0.20;99.90
25024;DHT22;13033;50.936;5.334;2023-03-01T07:49:42;-0.20;99.90
25024;DHT22;13033;50.936;5.334;2023-03-01T07:52:10;0.00;99.90
25024;DHT22;13033;50.936;5.334;2023-03-01T07:54:37;0.20;99.90
25024;DHT22;13033;50.936;5.334;2023-03-01T07:57:03;0.30;99.90
25024;DHT22;13033;50.936;5.334;2023-03-01T07:59:28;0.10;99.90
25024;DHT22;13033;50.936;5.334;2023-03-01T08:01:57;0.20;99.90
25024;DHT22;13033;50.936;5.334;2023-03-01T08:04:23;0.30;99.90
25024;DHT22;13033;50.936;5.334;2023-03-01T08:06:51;0.40;99.90
25024;DHT22;13033;50.936;5.334;2023-03-01T08:09:16;0.50;99.90
25024;DHT22;13033;50.936;5.334;2023-03-01T08:11:42;0.50;99.90
25024;DHT22;13033;50.936;5.334;2023-03-01T08:14:08;0.50;99.90
25024;DHT22;13033;50.936;5.334;2023-03-01T08:16:34;0.60;99.90
25024;DHT22;13033;50.936;5.334;2023-03-01T08:19:08;0.70;99.90
25024;DHT22;13033;50.936;5.334;2023-03-01T08:21:34;1.00;99.90
25024;DHT22;13033;50.936;5.334;2023-03-01T08:24:01;1.30;99.90
25024;DHT22;13033;50.936;5.334;2023-03-01T08:26:27;1.40;99.90
25024;DHT22;13033;50.936;5.334;2023-03-01T08:28:53;1.40;99.90
25024;DHT22;13033;50.936;5.334;2023-03-01T08:31:23;1.50;99.90
25024;DHT22;13033;50.936;5.334;2023-03-01T08:33:51;1.50;99.90
25024;DHT22;13033;50.936;5.334;2023-03-01T08:36:21;1.70;99.90
25024;DHT22;13033;50.936;5.334;2023-03-01T08:38:47;1.80;99.90
25024;DHT22;13033;50.936;5.334;2023-03-01T08:41:13;1.90;99.90
25024;DHT22;13033;50.936;5.334;2023-03-01T08:43:40;1.90;99.90
25024;DHT22;13033;50.936;5.334;2023-03-01T08:46:05;2.00;99.90
25024;DHT22;13033;50.936;5.334;2023-03-01T08:48:31;2.10;99.90
25024;DHT22;13033;50.936;5.334;2023-03-01T08:50:57;2.10;99.90
25024;DHT22;13033;50.936;5.334;2023-03-01T08:53:22;2.20;99.90
25024;DHT22;13033;50.936;5.334;2023-03-01T08:55:48;2.20;99.90
25024;DHT22;13033;50.936;5.334;2023-03-01T08:58:14;2.20;99.90
25024;DHT22;13033;50.936;5.334;2023-03-01T09:00:40;2.40;99.90
25024;DHT22;13033;50.936;5.334;2023-03-01T09:03:06;2.50;99.90
25024;DHT22;13033;50.936;5.334;2023-03-01T09:05:32;2.50;99.90
25024;DHT22;13033;50.936;5.334;2023-03-01T09:07:58;2.50;99.90
25024;DHT22;13033;50.936;5.334;2023-03-01T09:10:24;2.50;99.90
25024;DHT22;13033;50.936;5.334;2023-03-01T09:12:50;2.50;99.90
25024;DHT22;13033;50.936;5.334;2023-03-01T09:15:16;2.50;99.90
25024;DHT22;13033;50.936;5.334;2023-03-01T09:17:41;2.70;99.90
25024;DHT22;13033;50.936;5.334;2023-03-01T09:20:08;2.70;99.90
25024;DHT22;13033;50.936;5.334;2023-03-01T09:22:34;2.80;99.90
25024;DHT22;13033;50.936;5.334;2023-03-01T09:25:00;3.00;99.90
25024;DHT22;13033;50.936;5.334;2023-03-01T09:27:26;3.20;99.90
25024;DHT22;13033;50.936;5.334;2023-03-01T09:29:52;3.20;99.90
25024;DHT22;13033;50.936;5.334;2023-03-01T09:32:17;3.40;99.90
25024;DHT22;13033;50.936;5.334;2023-03-01T09:34:43;3.50;99.90
25024;DHT22;13033;50.936;5.334;2023-03-01T09:37:29;3.40;99.90
25024;DHT22;13033;50.936;5.334;2023-03-01T09:39:56;3.40;99.90
25024;DHT22;13033;50.936;5.334;2023-03-01T09:42:21;3.40;99.90
25024;DHT22;13033;50.936;5.334;2023-03-01T09:44:51;3.70;99.90
25024;DHT22;13033;50.936;5.334;2023-03-01T09:47:33;3.70;99.90
25024;DHT22;13033;50.936;5.334;2023-03-01T09:50:06;3.80;99.90
25024;DHT22;13033;50.936;5.334;2023-03-01T09:55:15;4.30;99.90
25024;DHT22;13033;50.936;5.334;2023-03-01T10:00:37;4.50;99.90
25024;DHT22;13033;50.936;5.334;2023-03-01T10:03:10;4.70;99.90
25024;DHT22;13033;50.936;5.334;2023-03-01T10:08:42;5.10;99.90
25024;DHT22;13033;50.936;5.334;2023-03-01T10:11:24;4.80;99.90
25024;DHT22;13033;50.936;5.334;2023-03-01T10:19:12;4.90;99.90
25024;DHT22;13033;50.936;5.334;2023-03-01T10:21:44;4.90;99.90
25024;DHT22;13033;50.936;5.334;2023-03-01T10:24:14;5.00;99.90
25024;DHT22;13033;50.936;5.334;2023-03-01T10:26:54;5.10;99.90
25024;DHT22;13033;50.936;5.334;2023-03-01T10:29:25;5.00;99.90
25024;DHT22;13033;50.936;5.334;2023-03-01T10:31:53;5.20;99.90
25024;DHT22;13033;50.936;5.334;2023-03-01T10:34:20;5.50;99.90
25024;DHT22;13033;50.936;5.334;2023-03-01T10:36:56;5.30;99.90
25024;DHT22;13033;50.936;5.334;2023-03-01T10:39:24;5.40;99.90
25024;DHT22;13033;50.936;5.334;2023-03-01T10:42:04;5.40;99.90
25024;DHT22;13033;50.936;5.334;2023-03-01T10:47:02;5.20;99.90
25024;DHT22;13033;50.936;5.334;2023-03-01T10:49:28;5.20;99.90
25024;DHT22;13033;50.936;5.334;2023-03-01T10:51:54;5.50;99.90
25024;DHT22;13033;50.936;5.334;2023-03-01T10:54:29;5.40;99.90
25024;DHT22;13033;50.936;5.334;2023-03-01T10:57:00;5.60;99.90
25024;DHT22;13033;50.936;5.334;2023-03-01T10:59:32;5.80;99.90
25024;DHT22;13033;50.936;5.334;2023-03-01T11:05:19;5.70;99.90
25024;DHT22;13033;50.936;5.334;2023-03-01T11:07:58;6.00;99.90
25024;DHT22;13033;50.936;5.334;2023-03-01T11:10:30;5.90;99.90
25024;DHT22;13033;50.936;5.334;2023-03-01T11:13:17;5.70;99.90
25024;DHT22;13033;50.936;5.334;2023-03-01T11:15:58;5.50;99.90
25024;DHT22;13033;50.936;5.334;2023-03-01T11:18:23;5.40;99.90
25024;DHT22;13033;50.936;5.334;2023-03-01T11:20:51;5.80;99.90
25024;DHT22;13033;50.936;5.334;2023-03-01T11:23:18;6.20;99.90
25024;DHT22;13033;50.936;5.334;2023-03-01T11:25:54;6.50;99.90
25024;DHT22;13033;50.936;5.334;2023-03-01T11:28:28;6.50;99.90
25024;DHT22;13033;50.936;5.334;2023-03-01T11:31:07;6.60;99.90
25024;DHT22;13033;50.936;5.334;2023-03-01T11:36:35;6.60;99.90
25024;DHT22;13033;50.936;5.334;2023-03-01T11:41:52;6.60;99.90
25024;DHT22;13033;50.936;5.334;2023-03-01T11:44:28;6.80;99.90
25024;DHT22;13033;50.936;5.334;2023-03-01T11:50:16;7.00;99.90
25024;DHT22;13033;50.936;5.334;2023-03-01T11:58:44;6.60;99.90
25024;DHT22;13033;50.936;5.334;2023-03-01T12:06:55;6.70;99.90
25024;DHT22;13033;50.936;5.334;2023-03-01T12:09:35;6.70;99.90
25024;DHT22;13033;50.936;5.334;2023-03-01T12:12:33;7.00;99.90
25024;DHT22;13033;50.936;5.334;2023-03-01T12:20:51;7.10;99.90
25024;DHT22;13033;50.936;5.334;2023-03-01T12:25:48;7.40;99.90
25024;DHT22;13033;50.936;5.334;2023-03-01T12:34:03;7.60;99.90
25024;DHT22;13033;50.936;5.334;2023-03-01T12:50:21;6.80;99.90
25024;DHT22;13033;50.936;5.334;2023-03-01T12:52:51;6.80;99.90
25024;DHT22;13033;50.936;5.334;2023-03-01T12:55:29;7.20;99.90
25024;DHT22;13033;50.936;5.334;2023-03-01T13:00:52;7.30;99.90
25024;DHT22;13033;50.936;5.334;2023-03-01T13:06:38;7.30;99.90
25024;DHT22;13033;50.936;5.334;2023-03-01T13:11:51;7.20;99.90
25024;DHT22;13033;50.936;5.334;2023-03-01T13:16:55;7.10;99.90
25024;DHT22;13033;50.936;5.334;2023-03-01T13:19:25;7.10;99.90
25024;DHT22;13033;50.936;5.334;2023-03-01T13:21:53;7.20;99.90
25024;DHT22;13033;50.936;5.334;2023-03-01T13:24:40;7.40;99.90
25024;DHT22;13033;50.936;5.334;2023-03-01T13:29:45;7.40;99.90
25024;DHT22;13033;50.936;5.334;2023-03-01T13:32:33;7.30;99.90
25024;DHT22;13033;50.936;5.334;2023-03-01T13:35:02;7.30;99.90
25024;DHT22;13033;50.936;5.334;2023-03-01T13:37:32;7.30;99.90
25024;DHT22;13033;50.936;5.334;2023-03-01T13:40:04;7.20;99.90
25024;DHT22;13033;50.936;5.334;2023-03-01T13:42:39;7.30;99.90
25024;DHT22;13033;50.936;5.334;2023-03-01T13:45:20;7.40;99.90
25024;DHT22;13033;50.936;5.334;2023-03-01T13:47:50;7.30;99.90
25024;DHT22;13033;50.936;5.334;2023-03-01T13:50:35;7.30;99.90
25024;DHT22;13033;50.936;5.334;2023-03-01T13:53:04;7.40;99.90
25024;DHT22;13033;50.936;5.334;2023-03-01T13:55:42;7.40;99.90
25024;DHT22;13033;50.936;5.334;2023-03-01T13:58:24;7.40;99.90
25024;DHT22;13033;50.936;5.334;2023-03-01T14:01:00;7.50;99.90
25024;DHT22;13033;50.936;5.334;2023-03-01T14:03:27;7.30;99.90
25024;DHT22;13033;50.936;5.334;2023-03-01T14:06:14;7.40;99.90
25024;DHT22;13033;50.936;5.334;2023-03-01T14:08:42;7.50;99.90
25024;DHT22;13033;50.936;5.334;2023-03-01T14:19:33;7.80;98.10
25024;DHT22;13033;50.936;5.334;2023-03-01T14:22:25;7.90;97.60
25024;DHT22;13033;50.936;5.334;2023-03-01T14:24:58;7.80;97.80
25024;DHT22;13033;50.936;5.334;2023-03-01T14:27:28;7.90;97.80
25024;DHT22;13033;50.936;5.334;2023-03-01T14:30:00;7.90;98.50
25024;DHT22;13033;50.936;5.334;2023-03-01T14:32:28;7.70;98.80
25024;DHT22;13033;50.936;5.334;2023-03-01T14:34:55;7.70;99.00
25024;DHT22;13033;50.936;5.334;2023-03-01T14:37:26;7.80;99.10
25024;DHT22;13033;50.936;5.334;2023-03-01T14:39:52;7.90;98.80
25024;DHT22;13033;50.936;5.334;2023-03-01T14:42:20;7.80;99.10
25024;DHT22;13033;50.936;5.334;2023-03-01T14:44:50;7.80;99.30
25024;DHT22;13033;50.936;5.334;2023-03-01T14:47:28;7.90;99.60
25024;DHT22;13033;50.936;5.334;2023-03-01T14:52:42;8.10;99.10
25024;DHT22;13033;50.936;5.334;2023-03-01T14:55:22;8.30;99.00
25024;DHT22;13033;50.936;5.334;2023-03-01T14:57:51;8.20;98.50
25024;DHT22;13033;50.936;5.334;2023-03-01T15:00:25;8.10;99.00
25024;DHT22;13033;50.936;5.334;2023-03-01T15:02:53;8.30;99.00
25024;DHT22;13033;50.936;5.334;2023-03-01T15:05:34;8.40;98.70
25024;DHT22;13033;50.936;5.334;2023-03-01T15:08:01;8.70;97.90
25024;DHT22;13033;50.936;5.334;2023-03-01T15:10:30;9.50;96.40
25024;DHT22;13033;50.936;5.334;2023-03-01T15:13:09;9.90;95.40
25024;DHT22;13033;50.936;5.334;2023-03-01T15:15:37;10.50;93.90
25024;DHT22;13033;50.936;5.334;2023-03-01T15:18:19;11.10;92.40
25024;DHT22;13033;50.936;5.334;2023-03-01T15:20:47;11.40;91.30
25024;DHT22;13033;50.936;5.334;2023-03-01T15:23:26;11.40;90.40
25024;DHT22;13033;50.936;5.334;2023-03-01T15:25:53;11.80;88.90
25024;DHT22;13033;50.936;5.334;2023-03-01T15:28:26;11.70;86.70
25024;DHT22;13033;50.936;5.334;2023-03-01T15:31:05;11.20;86.40
25024;DHT22;13033;50.936;5.334;2023-03-01T15:33:38;11.40;86.30
25024;DHT22;13033;50.936;5.334;2023-03-01T15:36:40;11.90;83.90
25024;DHT22;13033;50.936;5.334;2023-03-01T15:39:36;12.10;83.00
25024;DHT22;13033;50.936;5.334;2023-03-01T15:44:38;12.60;79.60
25024;DHT22;13033;50.936;5.334;2023-03-01T15:47:22;12.50;78.70
25024;DHT22;13033;50.936;5.334;2023-03-01T15:49:48;12.40;78.40
25024;DHT22;13033;50.936;5.334;2023-03-01T15:55:04;12.10;79.60
25024;DHT22;13033;50.936;5.334;2023-03-01T15:57:30;12.80;77.40
25024;DHT22;13033;50.936;5.334;2023-03-01T15:59:56;13.20;74.60
25024;DHT22;13033;50.936;5.334;2023-03-01T16:02:23;13.20;72.90
25024;DHT22;13033;50.936;5.334;2023-03-01T16:04:49;12.60;73.30
25024;DHT22;13033;50.936;5.334;2023-03-01T16:07:15;11.80;73.90
25024;DHT22;13033;50.936;5.334;2023-03-01T16:09:41;11.70;73.80
25024;DHT22;13033;50.936;5.334;2023-03-01T16:12:15;11.50;72.60
25024;DHT22;13033;50.936;5.334;2023-03-01T16:14:41;11.40;72.90
25024;DHT22;13033;50.936;5.334;2023-03-01T16:17:07;11.00;73.80
25024;DHT22;13033;50.936;5.334;2023-03-01T16:19:36;11.00;74.80
25024;DHT22;13033;50.936;5.334;2023-03-01T16:22:03;11.20;74.00
25024;DHT22;13033;50.936;5.334;2023-03-01T16:24:28;11.40;73.40
25024;DHT22;13033;50.936;5.334;2023-03-01T16:26:54;11.70;72.90
25024;DHT22;13033;50.936;5.334;2023-03-01T16:29:19;11.80;72.60
25024;DHT22;13033;50.936;5.334;2023-03-01T16:31:45;11.70;73.30
25024;DHT22;13033;50.936;5.334;2023-03-01T16:34:12;11.20;73.90
25024;DHT22;13033;50.936;5.334;2023-03-01T16:36:38;10.20;76.60
25024;DHT22;13033;50.936;5.334;2023-03-01T16:39:04;9.30;79.70
25024;DHT22;13033;50.936;5.334;2023-03-01T16:41:30;8.80;81.70
25024;DHT22;13033;50.936;5.334;2023-03-01T16:43:56;8.40;83.60
25024;DHT22;13033;50.936;5.334;2023-03-01T16:46:25;8.10;85.40
25024;DHT22;13033;50.936;5.334;2023-03-01T16:48:51;7.90;86.60
25024;DHT22;13033;50.936;5.334;2023-03-01T16:51:17;7.70;88.20
25024;DHT22;13033;50.936;5.334;2023-03-01T16:53:44;7.40;89.40
25024;DHT22;13033;50.936;5.334;2023-03-01T16:56:11;7.10;90.30
25024;DHT22;13033;50.936;5.334;2023-03-01T16:58:37;7.00;90.90
25024;DHT22;13033;50.936;5.334;2023-03-01T17:01:17;6.90;91.10
25024;DHT22;13033;50.936;5.334;2023-03-01T17:03:43;6.80;91.60
25024;DHT22;13033;50.936;5.334;2023-03-01T17:06:12;6.80;92.00
25024;DHT22;13033;50.936;5.334;2023-03-01T17:08:38;6.60;92.40
25024;DHT22;13033;50.936;5.334;2023-03-01T17:11:09;6.60;92.70
25024;DHT22;13033;50.936;5.334;2023-03-01T17:13:36;6.60;92.70
25024;DHT22;13033;50.936;5.334;2023-03-01T17:16:04;6.70;93.00
25024;DHT22;13033;50.936;5.334;2023-03-01T17:18:30;6.60;93.20
25024;DHT22;13033;50.936;5.334;2023-03-01T17:20:55;6.60;93.50
25024;DHT22;13033;50.936;5.334;2023-03-01T17:23:21;6.40;93.90
25024;DHT22;13033;50.936;5.334;2023-03-01T17:25:48;6.40;94.20
25024;DHT22;13033;50.936;5.334;2023-03-01T17:28:16;6.30;94.60
25024;DHT22;13033;50.936;5.334;2023-03-01T17:30:43;6.20;95.10
25024;DHT22;13033;50.936;5.334;2023-03-01T17:33:10;6.10;95.50
25024;DHT22;13033;50.936;5.334;2023-03-01T17:35:36;6.10;95.90
25024;DHT22;13033;50.936;5.334;2023-03-01T17:38:05;6.10;96.30